sensor_id;sensor_type;location;lat;lon;timestamp;temperature;humidity
59128;DHT22;44912;52.754;5.994;2024-02-23T00:01:51;5.40;99.90
59128;DHT22;44912;52.754;5.994;2024-02-23T00:04:17;5.50;99.90
59128;DHT22;44912;52.754;5.994;2024-02-23T00:06:44;5.50;99.90
59128;DHT22;44912;52.754;5.994;2024-02-23T00:09:10;5.50;99.90
59128;DHT22;44912;52.754;5.994;2024-02-23T00:11:39;5.40;99.90
59128;DHT22;44912;52.754;5.994;2024-02-23T00:14:06;5.20;99.90
59128;DHT22;44912;52.754;5.994;2024-02-23T00:16:40;5.20;99.90
59128;DHT22;44912;52.754;5.994;2024-02-23T00:19:08;5.10;99.90
59128;DHT22;44912;52.754;5.994;2024-02-23T00:21:35;5.00;99.90
59128;DHT22;44912;52.754;5.994;2024-02-23T00:24:01;4.90;99.90
59128;DHT22;44912;52.754;5.994;2024-02-23T00:26:26;4.80;99.90
59128;DHT22;44912;52.754;5.994;2024-02-23T00:28:54;4.70;99.90
59128;DHT22;44912;52.754;5.994;2024-02-23T00:31:20;4.40;99.90
59128;DHT22;44912;52.754;5.994;2024-02-23T00:33:45;4.20;99.90
59128;DHT22;44912;52.754;5.994;2024-02-23T00:36:11;4.30;99.90
59128;DHT22;44912;52.754;5.994;2024-02-23T00:38:37;4.40;99.90
59128;DHT22;44912;52.754;5.994;2024-02-23T00:41:02;4.50;99.90
59128;DHT22;44912;52.754;5.994;2024-02-23T00:43:28;4.60;99.90
59128;DHT22;44912;52.754;5.994;2024-02-23T00:45:55;4.70;99.90
59128;DHT22;44912;52.754;5.994;2024-02-23T00:48:21;4.70;99.90
59128;DHT22;44912;52.754;5.994;2024-02-23T00:50:46;4.80;99.90
59128;DHT22;44912;52.754;5.994;2024-02-23T00:53:12;4.90;99.90
59128;DHT22;44912;52.754;5.994;2024-02-23T00:55:38;5.00;99.90
59128;DHT22;44912;52.754;5.994;2024-02-23T00:58:03;5.10;99.90
59128;DHT22;44912;52.754;5.994;2024-02-23T01:00:29;5.30;99.90
59128;DHT22;44912;52.754;5.994;2024-02-23T01:02:55;5.40;99.90
59128;DHT22;44912;52.754;5.994;2024-02-23T01:05:20;5.50;99.90
59128;DHT22;44912;52.754;5.994;2024-02-23T01:07:46;5.60;99.90
59128;DHT22;44912;52.754;5.994;2024-02-23T01:10:12;5.70;99.90
59128;DHT22;44912;52.754;5.994;2024-02-23T01:12:37;5.90;99.90
59128;DHT22;44912;52.754;5.994;2024-02-23T01:15:03;6.10;99.90
59128;DHT22;44912;52.754;5.994;2024-02-23T01:17:29;6.20;99.90
59128;DHT22;44912;52.754;5.994;2024-02-23T01:19:54;6.40;99.90
59128;DHT22;44912;52.754;5.994;2024-02-23T01:22:20;6.50;99.90
59128;DHT22;44912;52.754;5.994;2024-02-23T01:24:46;6.60;99.90
59128;DHT22;44912;52.754;5.994;2024-02-23T01:27:11;6.60;99.90
59128;DHT22;44912;52.754;5.994;2024-02-23T01:29:37;6.70;99.90
59128;DHT22;44912;52.754;5.994;2024-02-23T01:32:03;6.80;99.90
59128;DHT22;44912;52.754;5.994;2024-02-23T01:34:28;6.90;99.90
59128;DHT22;44912;52.754;5.994;2024-02-23T01:36:54;6.90;99.90
59128;DHT22;44912;52.754;5.994;2024-02-23T01:39:20;6.90;99.90
59128;DHT22;44912;52.754;5.994;2024-02-23T01:41:46;6.90;99.90
59128;DHT22;44912;52.754;5.994;2024-02-23T01:44:11;7.00;99.90
59128;DHT22;44912;52.754;5.994;2024-02-23T01:46:37;7.00;99.90
59128;DHT22;44912;52.754;5.994;2024-02-23T01:49:04;7.10;99.90
59128;DHT22;44912;52.754;5.994;2024-02-23T01:51:30;7.00;99.90
59128;DHT22;44912;52.754;5.994;2024-02-23T01:53:57;7.00;99.90
59128;DHT22;44912;52.754;5.994;2024-02-23T01:56:22;7.10;99.90
59128;DHT22;44912;52.754;5.994;2024-02-23T01:58:48;7.00;99.90
59128;DHT22;44912;52.754;5.994;2024-02-23T02:01:14;7.00;99.90
59128;DHT22;44912;52.754;5.994;2024-02-23T02:03:41;7.00;99.90
59128;DHT22;44912;52.754;5.994;2024-02-23T02:06:06;6.90;99.90
59128;DHT22;44912;52.754;5.994;2024-02-23T02:08:36;6.90;99.90
59128;DHT22;44912;52.754;5.994;2024-02-23T02:11:02;6.90;99.90
59128;DHT22;44912;52.754;5.994;2024-02-23T02:13:29;6.90;99.90
59128;DHT22;44912;52.754;5.994;2024-02-23T02:15:55;6.90;99.90
59128;DHT22;44912;52.754;5.994;2024-02-23T02:18:21;7.00;99.90
59128;DHT22;44912;52.754;5.994;2024-02-23T02:20:56;6.90;99.90
59128;DHT22;44912;52.754;5.994;2024-02-23T02:23:23;6.80;99.90
59128;DHT22;44912;52.754;5.994;2024-02-23T02:25:56;6.80;99.90
59128;DHT22;44912;52.754;5.994;2024-02-23T02:28:22;6.80;99.90
59128;DHT22;44912;52.754;5.994;2024-02-23T02:30:49;6.80;99.90
59128;DHT22;44912;52.754;5.994;2024-02-23T02:33:15;6.70;99.90
59128;DHT22;44912;52.754;5.994;2024-02-23T02:35:40;6.70;99.90
59128;DHT22;44912;52.754;5.994;2024-02-23T02:38:06;6.80;99.90
59128;DHT22;44912;52.754;5.994;2024-02-23T02:40:32;6.70;99.90
59128;DHT22;44912;52.754;5.994;2024-02-23T02:42:58;6.70;99.90
59128;DHT22;44912;52.754;5.994;2024-02-23T02:45:23;6.80;99.90
59128;DHT22;44912;52.754;5.994;2024-02-23T02:47:49;6.60;99.90
59128;DHT22;44912;52.754;5.994;2024-02-23T02:50:15;6.70;99.90
59128;DHT22;44912;52.754;5.994;2024-02-23T02:52:41;6.60;99.90
59128;DHT22;44912;52.754;5.994;2024-02-23T02:55:07;6.60;99.90
59128;DHT22;44912;52.754;5.994;2024-02-23T02:57:33;6.60;99.90
59128;DHT22;44912;52.754;5.994;2024-02-23T03:00:04;6.50;99.90
59128;DHT22;44912;52.754;5.994;2024-02-23T03:02:35;6.60;99.90
59128;DHT22;44912;52.754;5.994;2024-02-23T03:05:00;6.60;99.90
59128;DHT22;44912;52.754;5.994;2024-02-23T03:07:26;6.60;99.90
59128;DHT22;44912;52.754;5.994;2024-02-23T03:09:51;6.60;99.90
59128;DHT22;44912;52.754;5.994;2024-02-23T03:12:17;6.60;99.90
59128;DHT22;44912;52.754;5.994;2024-02-23T03:14:43;6.60;99.90
59128;DHT22;44912;52.754;5.994;2024-02-23T03:17:09;6.60;99.90
59128;DHT22;44912;52.754;5.994;2024-02-23T03:19:35;6.60;99.90
59128;DHT22;44912;52.754;5.994;2024-02-23T03:22:01;6.70;99.90
59128;DHT22;44912;52.754;5.994;2024-02-23T03:24:27;6.60;99.90
59128;DHT22;44912;52.754;5.994;2024-02-23T03:26:53;6.50;99.90
59128;DHT22;44912;52.754;5.994;2024-02-23T03:29:18;6.70;99.90
59128;DHT22;44912;52.754;5.994;2024-02-23T03:31:44;6.60;99.90
59128;DHT22;44912;52.754;5.994;2024-02-23T03:34:10;6.70;99.90
59128;DHT22;44912;52.754;5.994;2024-02-23T03:36:36;6.50;99.90
59128;DHT22;44912;52.754;5.994;2024-02-23T03:39:02;6.50;99.90
59128;DHT22;44912;52.754;5.994;2024-02-23T03:41:28;6.40;99.90
59128;DHT22;44912;52.754;5.994;2024-02-23T03:43:53;6.40;99.90
59128;DHT22;44912;52.754;5.994;2024-02-23T03:46:19;6.30;99.90
59128;DHT22;44912;52.754;5.994;2024-02-23T03:48:45;6.30;99.90
59128;DHT22;44912;52.754;5.994;2024-02-23T03:51:11;6.20;99.90
59128;DHT22;44912;52.754;5.994;2024-02-23T03:53:37;6.30;99.90
59128;DHT22;44912;52.754;5.994;2024-02-23T03:56:02;6.30;99.90
59128;DHT22;44912;52.754;5.994;2024-02-23T03:58:28;6.30;99.90
59128;DHT22;44912;52.754;5.994;2024-02-23T04:00:54;6.40;99.90
59128;DHT22;44912;52.754;5.994;2024-02-23T04:03:20;6.30;99.90
59128;DHT22;44912;52.754;5.994;2024-02-23T04:05:45;6.20;99.90
59128;DHT22;44912;52.754;5.994;2024-02-23T04:08:12;6.20;99.90
59128;DHT22;44912;52.754;5.994;2024-02-23T04:10:37;6.20;99.90
59128;DHT22;44912;52.754;5.994;2024-02-23T04:13:03;6.20;99.90
59128;DHT22;44912;52.754;5.994;2024-02-23T04:15:29;6.20;99.90
59128;DHT22;44912;52.754;5.994;2024-02-23T04:17:54;6.20;99.90
59128;DHT22;44912;52.754;5.994;2024-02-23T04:20:20;6.20;99.90
59128;DHT22;44912;52.754;5.994;2024-02-23T04:22:46;6.10;99.90
59128;DHT22;44912;52.754;5.994;2024-02-23T04:25:11;6.10;99.90
59128;DHT22;44912;52.754;5.994;2024-02-23T04:27:37;6.00;99.90
59128;DHT22;44912;52.754;5.994;2024-02-23T04:30:04;6.00;99.90
59128;DHT22;44912;52.754;5.994;2024-02-23T04:32:30;6.00;99.90
59128;DHT22;44912;52.754;5.994;2024-02-23T04:34:56;5.90;99.90
59128;DHT22;44912;52.754;5.994;2024-02-23T04:37:22;5.90;99.90
59128;DHT22;44912;52.754;5.994;2024-02-23T04:39:47;5.80;99.90
59128;DHT22;44912;52.754;5.994;2024-02-23T04:42:13;5.80;99.90
59128;DHT22;44912;52.754;5.994;2024-02-23T04:44:41;5.80;99.90
59128;DHT22;44912;52.754;5.994;2024-02-23T04:47:06;5.70;99.90
59128;DHT22;44912;52.754;5.994;2024-02-23T04:49:32;5.70;99.90
59128;DHT22;44912;52.754;5.994;2024-02-23T04:51:58;5.60;99.90
59128;DHT22;44912;52.754;5.994;2024-02-23T04:54:23;5.70;99.90
59128;DHT22;44912;52.754;5.994;2024-02-23T04:56:49;5.60;99.90
59128;DHT22;44912;52.754;5.994;2024-02-23T04:59:15;5.50;99.90
59128;DHT22;44912;52.754;5.994;2024-02-23T05:01:41;5.60;99.90
59128;DHT22;44912;52.754;5.994;2024-02-23T05:04:08;5.60;99.90
59128;DHT22;44912;52.754;5.994;2024-02-23T05:06:34;5.60;99.90
59128;DHT22;44912;52.754;5.994;2024-02-23T05:09:01;5.60;99.90
59128;DHT22;44912;52.754;5.994;2024-02-23T05:11:27;5.60;99.90
59128;DHT22;44912;52.754;5.994;2024-02-23T05:13:53;5.70;99.90
59128;DHT22;44912;52.754;5.994;2024-02-23T05:16:18;5.70;99.90
59128;DHT22;44912;52.754;5.994;2024-02-23T05:18:44;5.70;99.90
59128;DHT22;44912;52.754;5.994;2024-02-23T05:21:12;5.70;99.90
59128;DHT22;44912;52.754;5.994;2024-02-23T05:23:37;5.70;99.90
59128;DHT22;44912;52.754;5.994;2024-02-23T05:26:03;5.70;99.90
59128;DHT22;44912;52.754;5.994;2024-02-23T05:28:29;5.80;99.90
59128;DHT22;44912;52.754;5.994;2024-02-23T05:30:55;5.70;99.90
59128;DHT22;44912;52.754;5.994;2024-02-23T05:33:21;5.60;99.90
59128;DHT22;44912;52.754;5.994;2024-02-23T05:35:47;5.70;99.90
59128;DHT22;44912;52.754;5.994;2024-02-23T05:38:14;5.60;99.90
59128;DHT22;44912;52.754;5.994;2024-02-23T05:40:40;5.60;99.90
59128;DHT22;44912;52.754;5.994;2024-02-23T05:43:06;5.60;99.90
59128;DHT22;44912;52.754;5.994;2024-02-23T05:45:32;5.50;99.90
59128;DHT22;44912;52.754;5.994;2024-02-23T05:47:57;5.60;99.90
59128;DHT22;44912;52.754;5.994;2024-02-23T05:50:23;5.50;99.90
59128;DHT22;44912;52.754;5.994;2024-02-23T05:52:49;5.50;99.90
59128;DHT22;44912;52.754;5.994;2024-02-23T05:55:14;5.40;99.90
59128;DHT22;44912;52.754;5.994;2024-02-23T05:57:40;5.50;99.90
59128;DHT22;44912;52.754;5.994;2024-02-23T06:00:07;5.40;99.90
59128;DHT22;44912;52.754;5.994;2024-02-23T06:02:33;5.40;99.90
59128;DHT22;44912;52.754;5.994;2024-02-23T06:04:58;5.40;99.90
59128;DHT22;44912;52.754;5.994;2024-02-23T06:07:24;5.50;99.90
59128;DHT22;44912;52.754;5.994;2024-02-23T06:09:58;5.40;99.90
59128;DHT22;44912;52.754;5.994;2024-02-23T06:12:26;5.40;99.90
59128;DHT22;44912;52.754;5.994;2024-02-23T06:14:52;5.40;99.90
59128;DHT22;44912;52.754;5.994;2024-02-23T06:17:18;5.40;99.90
59128;DHT22;44912;52.754;5.994;2024-02-23T06:19:44;5.40;99.90
59128;DHT22;44912;52.754;5.994;2024-02-23T06:22:09;5.40;99.90
59128;DHT22;44912;52.754;5.994;2024-02-23T06:24:38;5.40;99.90
59128;DHT22;44912;52.754;5.994;2024-02-23T06:27:04;5.40;99.90
59128;DHT22;44912;52.754;5.994;2024-02-23T06:29:30;5.40;99.90
59128;DHT22;44912;52.754;5.994;2024-02-23T06:31:56;5.40;99.90
59128;DHT22;44912;52.754;5.994;2024-02-23T06:34:21;5.40;99.90
59128;DHT22;44912;52.754;5.994;2024-02-23T06:36:47;5.40;99.90
59128;DHT22;44912;52.754;5.994;2024-02-23T06:39:13;5.40;99.90
59128;DHT22;44912;52.754;5.994;2024-02-23T06:41:39;5.50;99.90
59128;DHT22;44912;52.754;5.994;2024-02-23T06:44:05;5.60;99.90
59128;DHT22;44912;52.754;5.994;2024-02-23T06:46:30;5.50;99.90
59128;DHT22;44912;52.754;5.994;2024-02-23T06:48:56;5.40;99.90
59128;DHT22;44912;52.754;5.994;2024-02-23T06:51:22;5.50;99.90
59128;DHT22;44912;52.754;5.994;2024-02-23T06:53:47;5.60;99.90
59128;DHT22;44912;52.754;5.994;2024-02-23T06:56:13;5.60;99.90
59128;DHT22;44912;52.754;5.994;2024-02-23T06:58:39;5.60;99.90
59128;DHT22;44912;52.754;5.994;2024-02-23T07:01:05;5.60;99.90
59128;DHT22;44912;52.754;5.994;2024-02-23T07:03:36;5.60;99.90
59128;DHT22;44912;52.754;5.994;2024-02-23T07:06:02;5.70;99.90
59128;DHT22;44912;52.754;5.994;2024-02-23T07:08:28;5.60;99.90
59128;DHT22;44912;52.754;5.994;2024-02-23T07:10:55;5.60;99.90
59128;DHT22;44912;52.754;5.994;2024-02-23T07:13:21;5.60;99.90
59128;DHT22;44912;52.754;5.994;2024-02-23T07:15:46;5.60;99.90
59128;DHT22;44912;52.754;5.994;2024-02-23T07:18:12;5.60;99.90
59128;DHT22;44912;52.754;5.994;2024-02-23T07:20:38;5.70;99.90
59128;DHT22;44912;52.754;5.994;2024-02-23T07:23:04;5.70;99.90
59128;DHT22;44912;52.754;5.994;2024-02-23T07:25:30;5.70;99.90
59128;DHT22;44912;52.754;5.994;2024-02-23T07:27:56;5.80;99.90
59128;DHT22;44912;52.754;5.994;2024-02-23T07:30:22;5.80;99.90
59128;DHT22;44912;52.754;5.994;2024-02-23T07:32:49;5.90;99.90
59128;DHT22;44912;52.754;5.994;2024-02-23T07:35:14;5.80;99.90
59128;DHT22;44912;52.754;5.994;2024-02-23T07:37:40;5.80;99.90
59128;DHT22;44912;52.754;5.994;2024-02-23T07:40:06;5.90;99.90
59128;DHT22;44912;52.754;5.994;2024-02-23T07:42:33;5.90;99.90
59128;DHT22;44912;52.754;5.994;2024-02-23T07:45:02;5.90;99.90
59128;DHT22;44912;52.754;5.994;2024-02-23T07:47:30;5.90;99.90
59128;DHT22;44912;52.754;5.994;2024-02-23T07:49:55;5.90;99.90
59128;DHT22;44912;52.754;5.994;2024-02-23T07:52:21;5.90;99.90
59128;DHT22;44912;52.754;5.994;2024-02-23T07:54:49;6.00;99.90
59128;DHT22;44912;52.754;5.994;2024-02-23T07:57:18;6.00;99.90
59128;DHT22;44912;52.754;5.994;2024-02-23T07:59:43;6.10;99.90
59128;DHT22;44912;52.754;5.994;2024-02-23T08:02:09;6.10;99.90
59128;DHT22;44912;52.754;5.994;2024-02-23T08:04:35;6.10;99.90
59128;DHT22;44912;52.754;5.994;2024-02-23T08:07:00;6.10;99.90
59128;DHT22;44912;52.754;5.994;2024-02-23T08:09:26;6.20;99.90
59128;DHT22;44912;52.754;5.994;2024-02-23T08:11:52;6.30;99.90
59128;DHT22;44912;52.754;5.994;2024-02-23T08:14:18;6.30;99.90
59128;DHT22;44912;52.754;5.994;2024-02-23T08:16:43;6.30;99.90
59128;DHT22;44912;52.754;5.994;2024-02-23T08:19:09;6.40;99.90
59128;DHT22;44912;52.754;5.994;2024-02-23T08:21:34;6.50;99.90
59128;DHT22;44912;52.754;5.994;2024-02-23T08:24:00;6.50;99.90
59128;DHT22;44912;52.754;5.994;2024-02-23T08:26:26;6.50;99.90
59128;DHT22;44912;52.754;5.994;2024-02-23T08:28:51;6.50;99.90
59128;DHT22;44912;52.754;5.994;2024-02-23T08:31:17;6.60;99.90
59128;DHT22;44912;52.754;5.994;2024-02-23T08:33:42;6.60;99.90
59128;DHT22;44912;52.754;5.994;2024-02-23T08:36:08;6.60;99.90
59128;DHT22;44912;52.754;5.994;2024-02-23T08:38:36;6.70;99.90
59128;DHT22;44912;52.754;5.994;2024-02-23T08:41:02;6.70;99.90
59128;DHT22;44912;52.754;5.994;2024-02-23T08:43:28;6.70;99.90
59128;DHT22;44912;52.754;5.994;2024-02-23T08:45:53;6.60;99.90
59128;DHT22;44912;52.754;5.994;2024-02-23T08:48:19;6.70;99.90
59128;DHT22;44912;52.754;5.994;2024-02-23T08:50:45;6.70;99.90
59128;DHT22;44912;52.754;5.994;2024-02-23T08:53:11;6.70;99.90
59128;DHT22;44912;52.754;5.994;2024-02-23T08:55:36;6.70;99.90
59128;DHT22;44912;52.754;5.994;2024-02-23T08:58:02;6.60;99.90
59128;DHT22;44912;52.754;5.994;2024-02-23T09:00:28;6.60;99.90
59128;DHT22;44912;52.754;5.994;2024-02-23T09:02:54;6.70;99.90
59128;DHT22;44912;52.754;5.994;2024-02-23T09:05:19;6.70;99.90
59128;DHT22;44912;52.754;5.994;2024-02-23T09:07:46;6.70;99.90
59128;DHT22;44912;52.754;5.994;2024-02-23T09:10:11;6.60;99.90
59128;DHT22;44912;52.754;5.994;2024-02-23T09:12:37;6.70;99.90
59128;DHT22;44912;52.754;5.994;2024-02-23T09:15:04;6.70;99.90
59128;DHT22;44912;52.754;5.994;2024-02-23T09:17:30;6.70;99.90
59128;DHT22;44912;52.754;5.994;2024-02-23T09:19:56;6.90;99.90
59128;DHT22;44912;52.754;5.994;2024-02-23T09:22:21;6.90;99.90
59128;DHT22;44912;52.754;5.994;2024-02-23T09:24:48;6.90;99.90
59128;DHT22;44912;52.754;5.994;2024-02-23T09:27:13;6.90;99.90
59128;DHT22;44912;52.754;5.994;2024-02-23T09:29:41;7.00;99.90
59128;DHT22;44912;52.754;5.994;2024-02-23T09:32:07;7.10;99.90
59128;DHT22;44912;52.754;5.994;2024-02-23T09:34:33;7.10;99.90
59128;DHT22;44912;52.754;5.994;2024-02-23T09:36:59;7.10;99.90
59128;DHT22;44912;52.754;5.994;2024-02-23T09:39:25;7.10;99.90
59128;DHT22;44912;52.754;5.994;2024-02-23T09:41:54;7.20;99.90
59128;DHT22;44912;52.754;5.994;2024-02-23T09:44:20;7.10;99.90
59128;DHT22;44912;52.754;5.994;2024-02-23T09:46:49;7.10;99.90
59128;DHT22;44912;52.754;5.994;2024-02-23T09:49:17;7.00;99.90
59128;DHT22;44912;52.754;5.994;2024-02-23T09:51:43;7.10;99.90
59128;DHT22;44912;52.754;5.994;2024-02-23T09:54:10;7.10;99.90
59128;DHT22;44912;52.754;5.994;2024-02-23T09:56:35;7.30;99.90
59128;DHT22;44912;52.754;5.994;2024-02-23T09:59:03;7.20;99.90
59128;DHT22;44912;52.754;5.994;2024-02-23T10:01:31;7.30;99.90
59128;DHT22;44912;52.754;5.994;2024-02-23T10:03:59;7.20;99.90
59128;DHT22;44912;52.754;5.994;2024-02-23T10:06:25;7.30;99.90
59128;DHT22;44912;52.754;5.994;2024-02-23T10:08:51;7.20;99.90
59128;DHT22;44912;52.754;5.994;2024-02-23T10:11:21;7.40;99.90
59128;DHT22;44912;52.754;5.994;2024-02-23T10:13:50;7.30;99.90
59128;DHT22;44912;52.754;5.994;2024-02-23T10:16:17;7.30;99.90
59128;DHT22;44912;52.754;5.994;2024-02-23T10:18:46;7.30;99.90
59128;DHT22;44912;52.754;5.994;2024-02-23T10:21:12;7.40;99.90
59128;DHT22;44912;52.754;5.994;2024-02-23T10:23:38;7.40;99.90
59128;DHT22;44912;52.754;5.994;2024-02-23T10:26:05;7.40;99.90
59128;DHT22;44912;52.754;5.994;2024-02-23T10:28:31;7.50;99.90
59128;DHT22;44912;52.754;5.994;2024-02-23T10:30:57;7.40;99.90
59128;DHT22;44912;52.754;5.994;2024-02-23T10:33:23;7.40;99.90
59128;DHT22;44912;52.754;5.994;2024-02-23T10:35:56;7.40;99.90
59128;DHT22;44912;52.754;5.994;2024-02-23T10:38:22;7.40;99.90
59128;DHT22;44912;52.754;5.994;2024-02-23T10:40:49;7.40;99.90
59128;DHT22;44912;52.754;5.994;2024-02-23T10:43:19;7.50;99.90
59128;DHT22;44912;52.754;5.994;2024-02-23T10:45:48;7.50;99.90
59128;DHT22;44912;52.754;5.994;2024-02-23T10:48:15;7.50;99.90
59128;DHT22;44912;52.754;5.994;2024-02-23T10:50:41;7.50;99.90
59128;DHT22;44912;52.754;5.994;2024-02-23T10:53:10;7.50;99.90
59128;DHT22;44912;52.754;5.994;2024-02-23T10:55:37;7.50;99.90
59128;DHT22;44912;52.754;5.994;2024-02-23T10:58:09;7.50;99.90
59128;DHT22;44912;52.754;5.994;2024-02-23T11:00:37;7.40;99.90
59128;DHT22;44912;52.754;5.994;2024-02-23T11:03:03;7.50;99.90
59128;DHT22;44912;52.754;5.994;2024-02-23T11:05:30;7.50;99.90
59128;DHT22;44912;52.754;5.994;2024-02-23T11:07:56;7.50;99.90
59128;DHT22;44912;52.754;5.994;2024-02-23T11:10:23;7.40;99.90
59128;DHT22;44912;52.754;5.994;2024-02-23T11:13:00;7.50;99.90
59128;DHT22;44912;52.754;5.994;2024-02-23T11:15:30;7.50;99.90
59128;DHT22;44912;52.754;5.994;2024-02-23T11:17:56;7.40;99.90
59128;DHT22;44912;52.754;5.994;2024-02-23T11:20:21;7.40;99.90
59128;DHT22;44912;52.754;5.994;2024-02-23T11:22:52;7.50;99.90
59128;DHT22;44912;52.754;5.994;2024-02-23T11:25:18;7.50;99.90
59128;DHT22;44912;52.754;5.994;2024-02-23T11:27:49;7.50;99.90
59128;DHT22;44912;52.754;5.994;2024-02-23T11:30:17;7.40;99.90
59128;DHT22;44912;52.754;5.994;2024-02-23T11:32:47;7.60;99.90
59128;DHT22;44912;52.754;5.994;2024-02-23T11:35:17;7.50;99.90
59128;DHT22;44912;52.754;5.994;2024-02-23T11:37:56;7.60;99.90
59128;DHT22;44912;52.754;5.994;2024-02-23T11:40:27;7.50;99.90
59128;DHT22;44912;52.754;5.994;2024-02-23T11:42:57;7.60;99.90
59128;DHT22;44912;52.754;5.994;2024-02-23T11:45:24;7.60;99.90
59128;DHT22;44912;52.754;5.994;2024-02-23T11:47:50;7.60;99.90
59128;DHT22;44912;52.754;5.994;2024-02-23T11:50:16;7.70;99.90
59128;DHT22;44912;52.754;5.994;2024-02-23T11:52:45;7.70;99.90
59128;DHT22;44912;52.754;5.994;2024-02-23T11:55:10;7.80;99.90
59128;DHT22;44912;52.754;5.994;2024-02-23T11:57:38;7.80;99.90
59128;DHT22;44912;52.754;5.994;2024-02-23T12:00:05;7.80;99.90
59128;DHT22;44912;52.754;5.994;2024-02-23T12:02:33;7.80;99.90
59128;DHT22;44912;52.754;5.994;2024-02-23T12:04:58;7.90;99.90
59128;DHT22;44912;52.754;5.994;2024-02-23T12:07:25;7.80;99.90
59128;DHT22;44912;52.754;5.994;2024-02-23T12:09:52;7.90;99.90
59128;DHT22;44912;52.754;5.994;2024-02-23T12:12:18;8.00;99.90
59128;DHT22;44912;52.754;5.994;2024-02-23T12:14:44;8.10;99.90
59128;DHT22;44912;52.754;5.994;2024-02-23T12:17:09;8.10;99.90
59128;DHT22;44912;52.754;5.994;2024-02-23T12:19:41;8.20;99.90
59128;DHT22;44912;52.754;5.994;2024-02-23T12:22:07;8.30;99.90
59128;DHT22;44912;52.754;5.994;2024-02-23T12:24:34;8.20;99.90
59128;DHT22;44912;52.754;5.994;2024-02-23T12:27:00;8.40;99.90
59128;DHT22;44912;52.754;5.994;2024-02-23T12:29:25;8.40;99.90
59128;DHT22;44912;52.754;5.994;2024-02-23T12:32:02;8.50;99.90
59128;DHT22;44912;52.754;5.994;2024-02-23T12:34:29;8.50;99.90
59128;DHT22;44912;52.754;5.994;2024-02-23T12:36:55;8.50;99.90
59128;DHT22;44912;52.754;5.994;2024-02-23T12:39:21;8.50;99.90
59128;DHT22;44912;52.754;5.994;2024-02-23T12:41:46;8.40;99.90
59128;DHT22;44912;52.754;5.994;2024-02-23T12:44:12;8.50;99.90
59128;DHT22;44912;52.754;5.994;2024-02-23T12:46:38;8.40;99.90
59128;DHT22;44912;52.754;5.994;2024-02-23T12:49:03;8.40;99.90
59128;DHT22;44912;52.754;5.994;2024-02-23T12:51:29;8.50;99.90
59128;DHT22;44912;52.754;5.994;2024-02-23T12:53:55;8.50;99.90
59128;DHT22;44912;52.754;5.994;2024-02-23T12:56:21;8.50;99.90
59128;DHT22;44912;52.754;5.994;2024-02-23T12:58:46;8.60;99.90
59128;DHT22;44912;52.754;5.994;2024-02-23T13:01:12;8.60;99.90
59128;DHT22;44912;52.754;5.994;2024-02-23T13:03:39;8.50;99.90
59128;DHT22;44912;52.754;5.994;2024-02-23T13:06:08;8.60;99.90
59128;DHT22;44912;52.754;5.994;2024-02-23T13:08:34;8.60;99.90
59128;DHT22;44912;52.754;5.994;2024-02-23T13:11:00;8.60;99.90
59128;DHT22;44912;52.754;5.994;2024-02-23T13:13:26;8.60;99.90
59128;DHT22;44912;52.754;5.994;2024-02-23T13:15:52;8.50;99.90
59128;DHT22;44912;52.754;5.994;2024-02-23T13:18:18;8.50;99.90
59128;DHT22;44912;52.754;5.994;2024-02-23T13:20:45;8.50;99.90
59128;DHT22;44912;52.754;5.994;2024-02-23T13:23:11;8.50;99.90
59128;DHT22;44912;52.754;5.994;2024-02-23T13:25:38;8.50;99.90
59128;DHT22;44912;52.754;5.994;2024-02-23T13:28:04;8.50;99.90
59128;DHT22;44912;52.754;5.994;2024-02-23T13:30:31;8.50;99.90
59128;DHT22;44912;52.754;5.994;2024-02-23T13:32:56;8.50;99.90
59128;DHT22;44912;52.754;5.994;2024-02-23T13:35:22;8.50;99.90
59128;DHT22;44912;52.754;5.994;2024-02-23T13:37:48;8.50;99.90
59128;DHT22;44912;52.754;5.994;2024-02-23T13:40:14;8.60;99.90
59128;DHT22;44912;52.754;5.994;2024-02-23T13:42:40;8.60;99.90
59128;DHT22;44912;52.754;5.994;2024-02-23T13:45:06;8.60;99.90
59128;DHT22;44912;52.754;5.994;2024-02-23T13:47:33;8.60;99.90
59128;DHT22;44912;52.754;5.994;2024-02-23T13:49:58;8.60;99.90
59128;DHT22;44912;52.754;5.994;2024-02-23T13:52:24;8.60;99.90
59128;DHT22;44912;52.754;5.994;2024-02-23T13:54:50;8.60;99.90
59128;DHT22;44912;52.754;5.994;2024-02-23T13:57:15;8.60;99.90
59128;DHT22;44912;52.754;5.994;2024-02-23T13:59:41;8.60;99.90
59128;DHT22;44912;52.754;5.994;2024-02-23T14:02:07;8.60;99.90
59128;DHT22;44912;52.754;5.994;2024-02-23T14:04:33;8.60;99.90
59128;DHT22;44912;52.754;5.994;2024-02-23T14:06:58;8.60;99.90
59128;DHT22;44912;52.754;5.994;2024-02-23T14:09:24;8.70;99.90
59128;DHT22;44912;52.754;5.994;2024-02-23T14:11:50;8.80;99.90
59128;DHT22;44912;52.754;5.994;2024-02-23T14:14:15;8.80;99.90
59128;DHT22;44912;52.754;5.994;2024-02-23T14:16:41;8.90;99.90
59128;DHT22;44912;52.754;5.994;2024-02-23T14:19:07;9.00;99.90
59128;DHT22;44912;52.754;5.994;2024-02-23T14:21:33;9.00;99.90
59128;DHT22;44912;52.754;5.994;2024-02-23T14:24:01;9.00;99.90
59128;DHT22;44912;52.754;5.994;2024-02-23T14:26:27;9.00;99.90
59128;DHT22;44912;52.754;5.994;2024-02-23T14:28:52;9.00;99.90
59128;DHT22;44912;52.754;5.994;2024-02-23T14:31:18;9.10;99.90
59128;DHT22;44912;52.754;5.994;2024-02-23T14:33:44;9.20;99.90
59128;DHT22;44912;52.754;5.994;2024-02-23T14:36:09;9.10;99.90
59128;DHT22;44912;52.754;5.994;2024-02-23T14:38:35;9.20;99.90
59128;DHT22;44912;52.754;5.994;2024-02-23T14:41:00;9.20;99.90
59128;DHT22;44912;52.754;5.994;2024-02-23T14:43:26;9.10;99.90
59128;DHT22;44912;52.754;5.994;2024-02-23T14:45:52;9.00;99.90
59128;DHT22;44912;52.754;5.994;2024-02-23T14:48:18;9.00;99.90
59128;DHT22;44912;52.754;5.994;2024-02-23T14:50:44;8.90;99.90
59128;DHT22;44912;52.754;5.994;2024-02-23T14:53:09;9.00;99.90
59128;DHT22;44912;52.754;5.994;2024-02-23T14:55:36;8.80;99.90
59128;DHT22;44912;52.754;5.994;2024-02-23T14:58:02;8.90;99.90
59128;DHT22;44912;52.754;5.994;2024-02-23T15:00:28;8.80;99.90
59128;DHT22;44912;52.754;5.994;2024-02-23T15:02:56;8.70;99.90
59128;DHT22;44912;52.754;5.994;2024-02-23T15:05:22;8.80;99.90
59128;DHT22;44912;52.754;5.994;2024-02-23T15:07:48;8.80;99.90
59128;DHT22;44912;52.754;5.994;2024-02-23T15:10:14;8.80;99.90
59128;DHT22;44912;52.754;5.994;2024-02-23T15:12:40;8.70;99.90
59128;DHT22;44912;52.754;5.994;2024-02-23T15:15:06;8.70;99.90
59128;DHT22;44912;52.754;5.994;2024-02-23T15:17:32;8.70;99.90
59128;DHT22;44912;52.754;5.994;2024-02-23T15:19:58;8.70;99.90
59128;DHT22;44912;52.754;5.994;2024-02-23T15:22:24;8.70;99.90
59128;DHT22;44912;52.754;5.994;2024-02-23T15:24:51;8.60;99.90
59128;DHT22;44912;52.754;5.994;2024-02-23T15:27:18;8.60;99.90
59128;DHT22;44912;52.754;5.994;2024-02-23T15:29:43;8.60;99.90
59128;DHT22;44912;52.754;5.994;2024-02-23T15:32:09;8.60;99.90
59128;DHT22;44912;52.754;5.994;2024-02-23T15:34:38;8.60;99.90
59128;DHT22;44912;52.754;5.994;2024-02-23T15:37:04;8.40;99.90
59128;DHT22;44912;52.754;5.994;2024-02-23T15:39:30;8.60;99.90